createdAt,value
2018-12-13T00:00:56.421Z,44.60
2018-12-13T00:03:25.024Z,45.30
2018-12-13T00:05:53.687Z,46.00
2018-12-13T00:08:22.332Z,46.10
2018-12-13T00:10:51.257Z,45.70
2018-12-13T00:13:19.866Z,46.60
2018-12-13T00:15:48.871Z,46.70
2018-12-13T00:18:17.953Z,46.70
2018-12-13T00:20:47.205Z,46.80
2018-12-13T00:23:16.324Z,47.10
2018-12-13T00:25:45.850Z,46.80
2018-12-13T00:28:14.971Z,47.10
2018-12-13T00:30:44.303Z,47.00
2018-12-13T00:33:12.951Z,46.80
2018-12-13T00:35:41.637Z,46.80
2018-12-13T00:38:10.284Z,47.20
2018-12-13T00:40:38.941Z,47.50
2018-12-13T00:43:07.558Z,47.10
2018-12-13T00:45:36.244Z,47.90
2018-12-13T00:48:05.066Z,47.50
2018-12-13T00:50:33.715Z,47.30
2018-12-13T00:53:02.425Z,47.40
2018-12-13T00:55:31.121Z,47.60
2018-12-13T00:57:59.806Z,48.10
2018-12-13T01:00:28.876Z,47.50
2018-12-13T01:02:58.170Z,47.10
2018-12-13T01:05:27.310Z,47.80
2018-12-13T01:07:56.329Z,48.30
2018-12-13T01:10:25.414Z,47.70
2018-12-13T01:12:54.479Z,47.50
2018-12-13T01:15:23.941Z,47.30
2018-12-13T01:17:53.174Z,47.80
2018-12-13T01:20:21.844Z,48.00
2018-12-13T01:22:50.952Z,48.30
2018-12-13T01:25:19.660Z,48.20
2018-12-13T01:27:48.348Z,48.30
2018-12-13T01:30:17.125Z,48.50
2018-12-13T01:32:47.419Z,49.10
2018-12-13T01:35:16.111Z,49.00
2018-12-13T01:37:44.831Z,48.50
2018-12-13T01:40:13.586Z,49.10
2018-12-13T01:42:42.939Z,48.50
2018-12-13T01:45:12.334Z,48.30
2018-12-13T01:47:41.817Z,48.50
2018-12-13T01:50:11.143Z,47.80
2018-12-13T01:52:40.410Z,47.00
2018-12-13T01:55:09.762Z,47.80
2018-12-13T01:57:38.441Z,47.20
2018-12-13T02:00:07.267Z,47.70
2018-12-13T02:02:36.007Z,46.80
2018-12-13T02:05:04.868Z,48.30
2018-12-13T02:07:33.543Z,47.70
2018-12-13T02:10:02.174Z,47.60
2018-12-13T02:12:30.842Z,48.30
2018-12-13T02:14:59.468Z,49.10
2018-12-13T02:17:28.098Z,48.30
2018-12-13T02:19:56.835Z,47.60
2018-12-13T02:22:25.601Z,47.90
2018-12-13T02:24:54.831Z,47.30
2018-12-13T02:27:24.068Z,48.10
2018-12-13T02:29:53.268Z,48.20
2018-12-13T02:32:22.604Z,48.10
2018-12-13T02:34:51.698Z,47.90
2018-12-13T02:37:20.585Z,49.00
2018-12-13T02:39:49.670Z,48.80
2018-12-13T02:42:18.944Z,47.90
2018-12-13T02:44:48.274Z,46.80
2018-12-13T02:47:17.386Z,46.60
2018-12-13T02:49:46.672Z,45.70
2018-12-13T02:52:15.948Z,44.80
2018-12-13T02:54:45.270Z,44.70
2018-12-13T02:57:14.553Z,46.40
2018-12-13T02:59:43.216Z,44.50
2018-12-13T03:02:11.839Z,45.00
2018-12-13T03:04:40.538Z,43.60
2018-12-13T03:07:13.651Z,44.90
2018-12-13T03:09:40.836Z,45.20
2018-12-13T03:12:10.150Z,45.40
2018-12-13T03:14:39.306Z,44.40
2018-12-13T03:17:08.208Z,44.60
2018-12-13T03:19:37.709Z,45.00
2018-12-13T03:22:07.275Z,43.20
2018-12-13T03:24:36.523Z,42.80
2018-12-13T03:27:05.909Z,43.90
2018-12-13T03:29:34.984Z,44.10
2018-12-13T03:32:04.205Z,42.90
2018-12-13T03:34:33.484Z,42.90
2018-12-13T03:37:02.737Z,40.60
2018-12-13T03:39:31.363Z,42.20
2018-12-13T03:41:59.986Z,40.90
2018-12-13T03:44:28.657Z,40.30
2018-12-13T03:46:57.320Z,43.50
2018-12-13T03:49:25.954Z,40.80
2018-12-13T03:51:55.256Z,39.50
2018-12-13T03:54:24.734Z,38.70
2018-12-13T03:56:53.807Z,39.30
2018-12-13T03:59:22.932Z,38.30
2018-12-13T04:01:52.201Z,39.70
2018-12-13T04:04:21.522Z,37.50
2018-12-13T04:06:50.887Z,37.80
2018-12-13T04:09:20.134Z,36.80
2018-12-13T04:11:49.005Z,36.20
2018-12-13T04:14:18.183Z,36.80
2018-12-13T04:16:47.170Z,36.70
2018-12-13T04:19:16.855Z,37.90
2018-12-13T04:21:45.961Z,39.80
2018-12-13T04:24:14.706Z,39.50
2018-12-13T04:26:44.094Z,37.80
2018-12-13T04:29:12.789Z,40.20
2018-12-13T04:31:41.759Z,40.70
2018-12-13T04:34:10.871Z,39.40
2018-12-13T04:36:39.986Z,42.70
2018-12-13T04:39:09.231Z,42.30
2018-12-13T04:41:38.340Z,44.70
2018-12-13T04:44:07.457Z,46.70
2018-12-13T04:46:36.567Z,47.50
2018-12-13T04:49:05.811Z,49.00
2018-12-13T04:51:34.858Z,48.90
2018-12-13T04:54:03.507Z,48.90
2018-12-13T04:56:33.021Z,49.20
2018-12-13T04:59:02.200Z,48.80
2018-12-13T05:01:31.007Z,45.60
2018-12-13T05:04:00.095Z,44.30
2018-12-13T05:06:29.435Z,46.70
2018-12-13T05:08:58.486Z,49.60
2018-12-13T05:11:27.137Z,47.50
2018-12-13T05:13:55.840Z,44.80
2018-12-13T05:16:24.474Z,45.90
2018-12-13T05:18:53.072Z,46.50
2018-12-13T05:21:22.355Z,46.70
2018-12-13T05:23:51.896Z,46.60
2018-12-13T05:26:20.932Z,47.10
2018-12-13T05:28:50.047Z,47.70
2018-12-13T05:31:19.370Z,52.40
2018-12-13T05:33:48.351Z,55.10
2018-12-13T05:36:17.455Z,56.30
2018-12-13T05:38:46.132Z,55.50
2018-12-13T05:41:15.324Z,58.50
2018-12-13T05:43:46.160Z,58.50
2018-12-13T05:46:14.935Z,58.40
2018-12-13T05:48:43.649Z,59.10
2018-12-13T05:51:12.383Z,60.80
2018-12-13T05:53:41.165Z,57.50
2018-12-13T05:56:09.932Z,61.00
2018-12-13T05:58:38.774Z,62.50
2018-12-13T06:01:07.454Z,61.80
2018-12-13T06:03:36.180Z,62.50
2018-12-13T06:06:05.482Z,63.40
2018-12-13T06:08:34.809Z,62.40
2018-12-13T06:11:03.886Z,57.90
2018-12-13T06:13:32.962Z,56.70
2018-12-13T06:16:02.267Z,55.60
2018-12-13T06:18:31.372Z,56.10
2018-12-13T06:21:00.051Z,53.10
2018-12-13T06:23:29.481Z,55.40
2018-12-13T06:25:58.151Z,54.20
2018-12-13T06:28:26.878Z,57.20
2018-12-13T06:30:56.131Z,54.80
2018-12-13T06:33:25.146Z,53.10
2018-12-13T06:35:53.936Z,54.40
2018-12-13T06:38:22.613Z,57.10
2018-12-13T06:40:51.859Z,52.60
2018-12-13T06:43:20.971Z,54.90
2018-12-13T06:45:49.588Z,55.40
2018-12-13T06:48:19.087Z,54.10
2018-12-13T06:50:48.198Z,52.80
2018-12-13T06:53:17.686Z,51.60
2018-12-13T06:55:46.983Z,55.20
2018-12-13T06:58:16.168Z,55.90
2018-12-13T07:00:45.591Z,56.00
2018-12-13T07:03:15.109Z,53.40
2018-12-13T07:05:44.280Z,53.30
2018-12-13T07:08:13.498Z,53.10
2018-12-13T07:10:42.586Z,50.20
2018-12-13T07:13:11.700Z,50.10
2018-12-13T07:15:40.775Z,50.20
2018-12-13T07:18:09.887Z,51.20
2018-12-13T07:20:39.121Z,52.70
2018-12-13T07:23:08.142Z,46.80
2018-12-13T07:25:36.894Z,44.20
2018-12-13T07:28:05.596Z,48.90
2018-12-13T07:30:34.278Z,49.10
2018-12-13T07:33:03.415Z,46.50
2018-12-13T07:35:32.713Z,47.40
2018-12-13T07:38:02.214Z,44.40
2018-12-13T07:40:32.368Z,44.30
2018-12-13T07:43:01.436Z,47.10
2018-12-13T07:45:30.963Z,45.50
2018-12-13T07:47:59.993Z,47.00
2018-12-13T07:50:28.761Z,45.50
2018-12-13T07:52:57.821Z,43.90
2018-12-13T07:55:26.869Z,45.70
2018-12-13T07:57:55.967Z,44.80
2018-12-13T08:00:25.222Z,45.30
2018-12-13T08:02:54.706Z,45.10
2018-12-13T08:05:23.832Z,46.00
2018-12-13T08:07:52.746Z,44.70
2018-12-13T08:10:21.867Z,45.40
2018-12-13T08:12:51.173Z,42.90
2018-12-13T08:15:20.472Z,42.10
2018-12-13T08:17:49.739Z,42.70
2018-12-13T08:20:18.894Z,45.10
2018-12-13T08:22:48.293Z,44.40
2018-12-13T08:25:17.529Z,45.80
2018-12-13T08:27:46.432Z,45.40
2018-12-13T08:30:15.536Z,46.90
2018-12-13T08:32:44.884Z,48.80
2018-12-13T08:35:14.001Z,46.20
2018-12-13T08:37:43.291Z,47.20
2018-12-13T08:40:12.623Z,45.70
2018-12-13T08:42:41.879Z,44.50
2018-12-13T08:45:10.752Z,43.20
2018-12-13T08:47:40.294Z,43.50
2018-12-13T08:50:09.221Z,46.00
2018-12-13T08:52:38.402Z,47.10
2018-12-13T08:55:07.194Z,45.10
2018-12-13T08:57:35.891Z,43.10
2018-12-13T09:00:05.188Z,44.20
2018-12-13T09:02:34.389Z,44.40
2018-12-13T09:05:03.948Z,43.70
2018-12-13T09:07:32.928Z,46.80
2018-12-13T09:10:02.262Z,45.20
2018-12-13T09:12:31.706Z,45.10
2018-12-13T09:15:00.993Z,48.20
2018-12-13T09:17:30.185Z,50.00
2018-12-13T09:19:59.753Z,52.10
2018-12-13T09:22:29.022Z,50.40
2018-12-13T09:24:58.392Z,52.40
2018-12-13T09:27:28.301Z,52.90
2018-12-13T09:29:57.401Z,53.00
2018-12-13T09:32:26.393Z,51.40
2018-12-13T09:34:55.138Z,52.00
2018-12-13T09:37:24.177Z,52.10
2018-12-13T09:39:53.477Z,51.90
2018-12-13T09:42:22.696Z,52.50
2018-12-13T09:44:51.773Z,51.60
2018-12-13T09:47:21.272Z,48.80
2018-12-13T09:49:50.597Z,50.40
2018-12-13T09:52:19.657Z,50.50
2018-12-13T09:54:48.757Z,49.90
2018-12-13T09:57:17.863Z,51.50
2018-12-13T09:59:46.746Z,52.20
2018-12-13T10:02:15.854Z,51.90
2018-12-13T10:04:45.004Z,53.40
2018-12-13T10:07:14.871Z,53.50
2018-12-13T10:09:44.417Z,55.50
2018-12-13T10:12:13.652Z,55.60
2018-12-13T10:14:42.725Z,55.20
2018-12-13T10:17:12.724Z,52.30
2018-12-13T10:19:41.993Z,53.00
2018-12-13T10:22:12.098Z,53.50
2018-12-13T10:24:41.185Z,54.40
2018-12-13T10:27:10.180Z,55.10
2018-12-13T10:29:39.485Z,56.50
2018-12-13T10:32:08.806Z,58.70
2018-12-13T10:34:38.108Z,58.60
2018-12-13T10:37:07.145Z,59.50
2018-12-13T10:39:36.324Z,60.00
2018-12-13T10:42:05.560Z,60.40
2018-12-13T10:44:35.823Z,60.60
2018-12-13T10:47:04.945Z,60.70
2018-12-13T10:49:34.246Z,61.40
2018-12-13T10:52:03.461Z,61.00
2018-12-13T10:54:32.536Z,61.00
2018-12-13T10:57:01.916Z,61.80
2018-12-13T10:59:30.987Z,62.10
2018-12-13T11:02:01.511Z,63.00
2018-12-13T11:04:30.183Z,63.40
2018-12-13T11:06:58.836Z,63.50
2018-12-13T11:09:27.659Z,63.40
2018-12-13T11:11:56.854Z,63.60
2018-12-13T11:14:26.139Z,63.90
2018-12-13T11:16:55.386Z,63.90
2018-12-13T11:19:24.471Z,64.00
2018-12-13T11:21:53.697Z,64.80
2018-12-13T11:24:23.007Z,64.90
2018-12-13T11:26:52.093Z,65.30
2018-12-13T11:32:24.501Z,65.60
2018-12-13T11:34:53.827Z,66.00
2018-12-13T11:37:23.087Z,65.70
2018-12-13T11:39:52.438Z,66.70
2018-12-13T11:42:21.199Z,66.90
2018-12-13T11:44:50.664Z,67.10
2018-12-13T11:47:19.942Z,67.40
2018-12-13T11:49:48.945Z,67.90
2018-12-13T11:52:17.564Z,68.00
2018-12-13T11:54:46.323Z,67.70
2018-12-13T11:57:15.479Z,66.00
2018-12-13T11:59:44.575Z,65.20
2018-12-13T12:02:13.630Z,65.00
2018-12-13T12:04:42.787Z,64.80
2018-12-13T12:07:11.822Z,64.70
2018-12-13T12:09:41.104Z,65.20
2018-12-13T12:12:10.228Z,65.30
2018-12-13T12:14:39.302Z,65.40
2018-12-13T12:17:08.399Z,65.50
2018-12-13T12:19:37.631Z,65.30
2018-12-13T12:22:06.691Z,65.60
2018-12-13T12:24:35.778Z,65.70
2018-12-13T12:27:04.899Z,65.90
2018-12-13T12:29:34.173Z,66.30
2018-12-13T12:32:03.263Z,66.40
2018-12-13T12:34:32.593Z,66.40
2018-12-13T12:37:01.209Z,66.20
2018-12-13T12:39:29.792Z,66.20
2018-12-13T12:41:58.837Z,66.00
2018-12-13T12:44:30.306Z,66.20
2018-12-13T12:46:59.512Z,66.60
2018-12-13T12:49:28.575Z,66.80
2018-12-13T12:51:57.877Z,67.40
2018-12-13T12:54:27.411Z,68.00
2018-12-13T12:56:56.189Z,69.00
2018-12-13T12:59:25.542Z,69.60
2018-12-13T13:01:54.624Z,71.00
2018-12-13T13:04:24.334Z,71.60
2018-12-13T13:06:53.434Z,72.10
2018-12-13T13:09:25.195Z,72.00
2018-12-13T13:11:54.471Z,71.40
2018-12-13T13:14:23.746Z,70.40
2018-12-13T13:16:52.417Z,68.00
2018-12-13T13:19:21.148Z,67.80
2018-12-13T13:21:49.854Z,67.10
2018-12-13T13:24:19.300Z,67.70
2018-12-13T13:26:48.132Z,68.00
2018-12-13T13:29:17.413Z,66.20
2018-12-13T13:31:46.347Z,66.40
2018-12-13T13:34:15.363Z,65.60
2018-12-13T13:36:44.652Z,65.40
2018-12-13T13:39:13.915Z,66.30
2018-12-13T13:41:43.255Z,66.20
2018-12-13T13:44:12.716Z,66.00
2018-12-13T13:46:41.981Z,66.00
2018-12-13T13:49:11.296Z,66.40
2018-12-13T13:51:40.527Z,65.70
2018-12-13T13:54:09.904Z,66.10
2018-12-13T13:56:39.032Z,66.40
2018-12-13T13:59:08.358Z,66.90
2018-12-13T14:01:37.004Z,66.70
2018-12-13T14:04:06.410Z,66.70
2018-12-13T14:06:35.196Z,66.20
2018-12-13T14:09:06.727Z,66.50
2018-12-13T14:11:36.191Z,66.80
2018-12-13T14:14:05.960Z,66.60
2018-12-13T14:16:35.102Z,67.60
2018-12-13T14:19:04.196Z,68.20
2018-12-13T14:21:33.891Z,68.30
2018-12-13T14:24:03.184Z,68.50
2018-12-13T14:26:32.301Z,68.90
2018-12-13T14:29:01.337Z,68.90
2018-12-13T14:31:30.559Z,68.90
2018-12-13T14:33:59.349Z,69.10
2018-12-13T14:36:28.436Z,69.30
2018-12-13T14:38:57.742Z,69.70
2018-12-13T14:41:27.044Z,69.90
2018-12-13T14:43:56.290Z,70.50
2018-12-13T14:46:24.943Z,70.90
2018-12-13T14:48:54.352Z,71.00
2018-12-13T14:51:23.032Z,70.80
2018-12-13T14:53:52.165Z,71.40
2018-12-13T14:56:21.672Z,71.60
2018-12-13T14:58:50.900Z,71.70
2018-12-13T15:01:20.183Z,72.40
2018-12-13T15:03:49.557Z,72.50
2018-12-13T15:06:18.394Z,72.40
2018-12-13T15:08:47.314Z,72.70
2018-12-13T15:11:16.192Z,73.30
2018-12-13T15:13:44.901Z,73.30
2018-12-13T15:16:13.994Z,73.50
2018-12-13T15:18:43.283Z,73.50
2018-12-13T15:21:12.345Z,73.60
2018-12-13T15:23:41.476Z,73.70
2018-12-13T15:26:10.775Z,74.00
2018-12-13T15:28:39.936Z,74.30
2018-12-13T15:31:09.031Z,74.30
2018-12-13T15:33:38.744Z,74.40
2018-12-13T15:36:08.287Z,74.40
2018-12-13T15:38:37.713Z,73.90
2018-12-13T15:41:07.221Z,73.60
2018-12-13T15:43:36.059Z,73.20
2018-12-13T15:46:05.239Z,72.30
2018-12-13T15:48:34.246Z,72.30
2018-12-13T15:51:03.182Z,72.00
2018-12-13T15:53:32.470Z,71.70
2018-12-13T15:56:01.986Z,70.90
2018-12-13T15:58:31.763Z,70.40
2018-12-13T16:01:00.956Z,67.80
2018-12-13T16:03:29.806Z,66.60
2018-12-13T16:05:58.884Z,65.10
2018-12-13T16:08:28.202Z,62.40
2018-12-13T16:10:57.489Z,61.00
2018-12-13T16:13:26.110Z,59.70
2018-12-13T16:15:54.759Z,58.50
2018-12-13T16:18:23.910Z,57.90
2018-12-13T16:20:53.358Z,58.20
2018-12-13T16:23:22.654Z,57.30
2018-12-13T16:25:52.162Z,55.60
2018-12-13T16:28:21.302Z,54.80
2018-12-13T16:30:50.665Z,55.70
2018-12-13T16:33:19.886Z,56.30
2018-12-13T16:35:48.955Z,54.30
2018-12-13T16:38:18.310Z,53.80
2018-12-13T16:40:47.350Z,54.10
2018-12-13T16:43:16.632Z,54.10
2018-12-13T16:45:46.054Z,50.80
2018-12-13T16:48:15.187Z,52.30
2018-12-13T16:50:44.330Z,50.20
2018-12-13T16:53:13.567Z,49.40
2018-12-13T16:55:43.111Z,48.40
2018-12-13T16:58:11.744Z,46.80
2018-12-13T17:00:40.416Z,46.70
2018-12-13T17:03:20.278Z,45.20
2018-12-13T17:05:48.916Z,44.00
2018-12-13T17:08:18.367Z,42.00
2018-12-13T17:10:47.665Z,42.40
2018-12-13T17:13:16.963Z,38.10
2018-12-13T17:15:46.236Z,36.40
2018-12-13T17:18:15.134Z,33.30
2018-12-13T17:20:44.717Z,31.60
2018-12-13T17:23:13.821Z,32.80
2018-12-13T17:25:42.920Z,28.30
2018-12-13T17:28:12.052Z,25.80
2018-12-13T17:30:41.345Z,24.30
2018-12-13T17:33:10.454Z,26.90
2018-12-13T17:35:39.550Z,28.60
2018-12-13T17:38:08.206Z,28.90
2018-12-13T17:40:36.859Z,28.90
2018-12-13T17:43:05.599Z,30.30
2018-12-13T17:45:34.265Z,30.40
2018-12-13T17:48:02.960Z,30.40
2018-12-13T17:50:31.694Z,28.20
2018-12-13T17:53:01.374Z,28.70
2018-12-13T17:55:30.421Z,26.90
2018-12-13T17:57:59.795Z,31.40
2018-12-13T18:00:29.013Z,28.40
2018-12-13T18:02:57.907Z,22.50
2018-12-13T18:05:27.202Z,22.00
2018-12-13T18:07:56.794Z,22.30
2018-12-13T18:10:29.370Z,21.80
2018-12-13T18:12:57.173Z,23.30
2018-12-13T18:15:26.483Z,18.70
2018-12-13T18:17:55.961Z,18.90
2018-12-13T18:20:25.061Z,21.00
2018-12-13T18:22:54.466Z,22.40
2018-12-13T18:25:23.783Z,22.00
2018-12-13T18:27:53.142Z,21.10
2018-12-13T18:30:22.381Z,24.50
2018-12-13T18:32:51.660Z,22.60
2018-12-13T18:35:20.959Z,22.50
2018-12-13T18:37:50.072Z,23.10
2018-12-13T18:40:19.576Z,24.40
2018-12-13T18:42:48.931Z,25.70
2018-12-13T18:45:20.279Z,25.80
2018-12-13T18:47:49.645Z,26.50
2018-12-13T18:50:18.919Z,27.10
2018-12-13T18:52:48.392Z,26.20
2018-12-13T18:55:18.379Z,28.10
2018-12-13T18:57:47.416Z,29.10
2018-12-13T19:00:16.702Z,27.40
2018-12-13T19:02:46.003Z,26.70
2018-12-13T19:05:15.133Z,28.40
2018-12-13T19:07:44.120Z,23.30
2018-12-13T19:10:12.763Z,22.80
2018-12-13T19:12:41.892Z,21.00
2018-12-13T19:15:10.551Z,19.10
2018-12-13T19:17:39.180Z,19.10
2018-12-13T19:20:08.813Z,19.80
2018-12-13T19:22:38.063Z,19.50
2018-12-13T19:25:07.832Z,22.30
2018-12-13T19:27:37.862Z,21.30
2018-12-13T19:30:07.507Z,17.50
2018-12-13T19:32:37.065Z,15.80
2018-12-13T19:35:06.117Z,18.80
2018-12-13T19:37:35.370Z,19.60
2018-12-13T19:40:05.417Z,18.00
2018-12-13T19:42:34.722Z,16.80
2018-12-13T19:45:03.951Z,15.60
2018-12-13T19:47:33.319Z,16.70
2018-12-13T19:50:02.628Z,19.30
2018-12-13T19:52:31.258Z,16.60
2018-12-13T19:55:00.389Z,18.70
2018-12-13T19:57:29.909Z,17.90
2018-12-13T19:59:58.532Z,19.30
2018-12-13T20:02:27.936Z,18.50
2018-12-13T20:04:57.006Z,21.50
2018-12-13T20:07:26.308Z,20.60
2018-12-13T20:09:55.592Z,17.50
2018-12-13T20:12:24.900Z,17.50
2018-12-13T20:14:53.980Z,19.50
2018-12-13T20:17:23.259Z,19.20
2018-12-13T20:19:52.375Z,19.50
2018-12-13T20:22:21.665Z,18.60
2018-12-13T20:24:51.027Z,15.60
2018-12-13T20:27:20.410Z,16.40
2018-12-13T20:29:49.689Z,16.50
2018-12-13T20:32:19.078Z,14.20
2018-12-13T20:34:48.096Z,15.90
2018-12-13T20:37:17.578Z,15.70
2018-12-13T20:39:46.908Z,16.90
2018-12-13T20:42:16.182Z,15.70
2018-12-13T20:44:45.058Z,16.20
2018-12-13T20:47:13.771Z,16.20
2018-12-13T20:49:43.046Z,13.80
2018-12-13T20:52:12.075Z,14.00
2018-12-13T20:54:41.457Z,14.40
2018-12-13T20:57:10.544Z,13.50
2018-12-13T20:59:39.830Z,13.10
2018-12-13T21:02:09.003Z,14.10
2018-12-13T21:04:38.191Z,14.50
2018-12-13T21:07:12.934Z,14.20
2018-12-13T21:09:42.184Z,14.20
2018-12-13T21:12:11.632Z,14.50
2018-12-13T21:14:41.104Z,13.40
2018-12-13T21:17:10.442Z,13.50
2018-12-13T21:19:39.487Z,12.50
2018-12-13T21:22:08.810Z,14.00
2018-12-13T21:24:37.437Z,12.10
2018-12-13T21:30:01.755Z,12.50
2018-12-13T21:32:30.422Z,14.10
2018-12-13T21:35:00.337Z,14.50
2018-12-13T21:37:29.629Z,13.50
2018-12-13T21:39:58.937Z,12.60
2018-12-13T21:42:28.399Z,13.50
2018-12-13T21:44:57.702Z,14.20
2018-12-13T21:47:27.075Z,11.70
2018-12-13T21:49:56.087Z,13.00
2018-12-13T21:52:25.228Z,12.90
2018-12-13T21:54:54.482Z,12.50
2018-12-13T21:57:23.900Z,12.10
2018-12-13T21:59:52.697Z,13.50
2018-12-13T22:02:22.020Z,11.40
2018-12-13T22:04:50.636Z,17.80
2018-12-13T22:07:19.284Z,19.30
2018-12-13T22:09:47.930Z,18.80
2018-12-13T22:12:16.589Z,19.40
2018-12-13T22:14:45.221Z,21.30
2018-12-13T22:17:14.547Z,21.00
2018-12-13T22:19:43.899Z,20.70
2018-12-13T22:22:12.864Z,20.60
2018-12-13T22:24:42.227Z,20.20
2018-12-13T22:27:11.468Z,21.80
2018-12-13T22:29:41.313Z,22.20
2018-12-13T22:32:10.553Z,22.40
2018-12-13T22:34:39.603Z,21.90
2018-12-13T22:37:09.066Z,23.10
2018-12-13T22:39:38.198Z,23.50
2018-12-13T22:42:07.455Z,24.10
2018-12-13T22:44:36.581Z,24.90
2018-12-13T22:47:05.529Z,24.70
2018-12-13T22:49:34.544Z,25.50
2018-12-13T22:52:03.200Z,26.00
2018-12-13T22:54:31.849Z,25.60
2018-12-13T22:57:00.456Z,26.20
2018-12-13T22:59:29.054Z,25.90
2018-12-13T23:01:58.329Z,25.70
2018-12-13T23:04:27.584Z,24.90
2018-12-13T23:06:57.124Z,25.00
2018-12-13T23:09:26.202Z,24.80
2018-12-13T23:11:56.586Z,24.60
2018-12-13T23:14:25.520Z,24.60
2018-12-13T23:16:54.702Z,24.60
2018-12-13T23:19:23.777Z,24.90
2018-12-13T23:21:53.196Z,25.10
2018-12-13T23:24:22.267Z,25.00
2018-12-13T23:26:51.905Z,25.00
2018-12-13T23:29:20.931Z,24.10
2018-12-13T23:31:49.926Z,24.20
2018-12-13T23:34:19.624Z,24.70
2018-12-13T23:36:48.341Z,24.50
2018-12-13T23:39:17.074Z,27.70
2018-12-13T23:41:45.733Z,26.40
2018-12-13T23:44:14.401Z,26.10
2018-12-13T23:46:43.095Z,25.90
2018-12-13T23:49:12.110Z,25.70
2018-12-13T23:51:40.833Z,24.50
2018-12-13T23:54:09.458Z,23.50
2018-12-13T23:56:38.086Z,23.70
2018-12-13T23:59:07.194Z,23.70
